sensor_id;sensor_type;location;lat;lon;timestamp;pressure;altitude;pressure_sealevel;temperature;humidity
52923;BME280;38796;42.702;23.306;2022-11-20T00:01:52;94548.41;;;14.04;80.90
52923;BME280;38796;42.702;23.306;2022-11-20T00:03:51;94550.13;;;14.19;80.42
52923;BME280;38796;42.702;23.306;2022-11-20T00:05:49;94545.38;;;14.38;79.38
52923;BME280;38796;42.702;23.306;2022-11-20T00:07:47;94524.47;;;14.51;78.81
52923;BME280;38796;42.702;23.306;2022-11-20T00:09:46;94550.44;;;14.79;77.41
52923;BME280;38796;42.702;23.306;2022-11-20T00:11:44;94525.03;;;14.84;77.40
52923;BME280;38796;42.702;23.306;2022-11-20T00:13:42;94545.78;;;14.81;76.60
52923;BME280;38796;42.702;23.306;2022-11-20T00:15:40;94523.28;;;14.77;76.46
52923;BME280;38796;42.702;23.306;2022-11-20T00:17:40;94517.41;;;14.89;75.45
52923;BME280;38796;42.702;23.306;2022-11-20T00:19:38;94515.13;;;15.01;74.42
52923;BME280;38796;42.702;23.306;2022-11-20T00:21:36;94495.03;;;15.22;72.05
52923;BME280;38796;42.702;23.306;2022-11-20T00:23:35;94518.66;;;15.46;70.98
52923;BME280;38796;42.702;23.306;2022-11-20T00:25:34;94515.63;;;15.64;70.71
52923;BME280;38796;42.702;23.306;2022-11-20T00:27:32;94499.25;;;15.60;71.46
52923;BME280;38796;42.702;23.306;2022-11-20T00:29:30;94526.25;;;15.64;70.63
52923;BME280;38796;42.702;23.306;2022-11-20T00:31:29;94523.22;;;15.52;71.14
52923;BME280;38796;42.702;23.306;2022-11-20T00:33:31;94523.22;;;15.52;71.20
52923;BME280;38796;42.702;23.306;2022-11-20T00:35:29;94516.75;;;15.55;71.00
52923;BME280;38796;42.702;23.306;2022-11-20T00:37:28;94523.59;;;15.64;68.99
52923;BME280;38796;42.702;23.306;2022-11-20T00:39:26;94505.97;;;16.44;65.00
52923;BME280;38796;42.702;23.306;2022-11-20T00:41:25;94492.84;;;17.00;62.50
52923;BME280;38796;42.702;23.306;2022-11-20T00:43:24;94504.69;;;17.25;60.87
52923;BME280;38796;42.702;23.306;2022-11-20T00:45:22;94506.31;;;17.26;61.58
52923;BME280;38796;42.702;23.306;2022-11-20T00:47:20;94534.66;;;17.13;62.12
52923;BME280;38796;42.702;23.306;2022-11-20T00:49:20;94507.13;;;17.20;61.34
52923;BME280;38796;42.702;23.306;2022-11-20T00:51:20;94496.25;;;17.50;59.41
52923;BME280;38796;42.702;23.306;2022-11-20T00:53:19;94507.78;;;17.57;59.85
52923;BME280;38796;42.702;23.306;2022-11-20T00:55:17;94504.31;;;17.63;60.16
52923;BME280;38796;42.702;23.306;2022-11-20T00:57:15;94508.09;;;17.47;60.55
52923;BME280;38796;42.702;23.306;2022-11-20T00:59:13;94493.63;;;17.57;59.98
52923;BME280;38796;42.702;23.306;2022-11-20T01:01:13;94512.66;;;17.53;60.39
52923;BME280;38796;42.702;23.306;2022-11-20T01:03:11;94491.16;;;17.55;60.27
52923;BME280;38796;42.702;23.306;2022-11-20T01:05:11;94491.38;;;17.53;60.44
52923;BME280;38796;42.702;23.306;2022-11-20T01:07:09;94497.41;;;17.41;61.01
52923;BME280;38796;42.702;23.306;2022-11-20T01:09:10;94488.22;;;17.43;60.75
52923;BME280;38796;42.702;23.306;2022-11-20T01:11:10;94494.59;;;17.49;59.95
52923;BME280;38796;42.702;23.306;2022-11-20T01:13:09;94491.03;;;17.70;59.70
52923;BME280;38796;42.702;23.306;2022-11-20T01:15:24;94470.03;;;17.82;58.72
52923;BME280;38796;42.702;23.306;2022-11-20T01:17:23;94489.75;;;17.94;58.28
52923;BME280;38796;42.702;23.306;2022-11-20T01:19:22;94476.81;;;17.91;58.74
52923;BME280;38796;42.702;23.306;2022-11-20T01:21:24;94479.19;;;17.72;58.97
52923;BME280;38796;42.702;23.306;2022-11-20T01:23:23;94487.66;;;17.83;58.52
52923;BME280;38796;42.702;23.306;2022-11-20T01:25:21;94506.00;;;17.71;58.82
52923;BME280;38796;42.702;23.306;2022-11-20T01:27:20;94439.03;;;17.67;59.15
52923;BME280;38796;42.702;23.306;2022-11-20T01:29:21;94459.56;;;17.80;58.61
52923;BME280;38796;42.702;23.306;2022-11-20T01:31:22;94461.91;;;17.62;58.76
52923;BME280;38796;42.702;23.306;2022-11-20T01:33:20;94477.53;;;17.71;58.56
52923;BME280;38796;42.702;23.306;2022-11-20T01:35:19;94472.22;;;17.71;58.57
52923;BME280;38796;42.702;23.306;2022-11-20T01:37:19;94465.72;;;17.81;57.91
52923;BME280;38796;42.702;23.306;2022-11-20T01:39:19;94482.53;;;17.88;57.65
52923;BME280;38796;42.702;23.306;2022-11-20T01:41:18;94452.63;;;17.79;57.83
52923;BME280;38796;42.702;23.306;2022-11-20T01:43:31;94451.31;;;17.68;58.02
52923;BME280;38796;42.702;23.306;2022-11-20T01:45:56;94461.28;;;17.60;58.58
52923;BME280;38796;42.702;23.306;2022-11-20T01:47:55;94466.44;;;17.61;58.57
52923;BME280;38796;42.702;23.306;2022-11-20T01:49:56;94462.53;;;17.57;58.43
52923;BME280;38796;42.702;23.306;2022-11-20T01:51:59;94437.22;;;17.74;57.43
52923;BME280;38796;42.702;23.306;2022-11-20T01:54:04;94476.66;;;17.99;56.66
52923;BME280;38796;42.702;23.306;2022-11-20T01:56:08;94468.66;;;17.99;56.84
52923;BME280;38796;42.702;23.306;2022-11-20T01:58:08;94472.41;;;18.11;56.35
52923;BME280;38796;42.702;23.306;2022-11-20T02:00:09;94474.44;;;18.09;56.54
52923;BME280;38796;42.702;23.306;2022-11-20T02:02:08;94468.91;;;18.04;56.22
52923;BME280;38796;42.702;23.306;2022-11-20T02:04:08;94460.84;;;17.91;56.69
52923;BME280;38796;42.702;23.306;2022-11-20T02:06:11;94472.22;;;17.71;57.64
52923;BME280;38796;42.702;23.306;2022-11-20T02:08:11;94476.44;;;17.59;58.94
52923;BME280;38796;42.702;23.306;2022-11-20T02:10:12;94454.03;;;17.40;59.49
52923;BME280;38796;42.702;23.306;2022-11-20T02:12:11;94447.63;;;17.28;59.40
52923;BME280;38796;42.702;23.306;2022-11-20T02:14:29;94496.06;;;17.23;59.86
52923;BME280;38796;42.702;23.306;2022-11-20T02:16:29;94455.59;;;17.28;nan
52923;BME280;38796;42.702;23.306;2022-11-20T02:18:28;94442.34;;;17.41;58.40
52923;BME280;38796;42.702;23.306;2022-11-20T02:20:28;94444.50;;;17.59;58.14
52923;BME280;38796;42.702;23.306;2022-11-20T02:22:30;94455.06;;;17.81;58.00
52923;BME280;38796;42.702;23.306;2022-11-20T02:24:31;94468.31;;;17.67;58.66
52923;BME280;38796;42.702;23.306;2022-11-20T02:26:31;94465.75;;;17.52;58.99
52923;BME280;38796;42.702;23.306;2022-11-20T02:28:31;94457.88;;;17.38;59.46
52923;BME280;38796;42.702;23.306;2022-11-20T02:30:30;94472.91;;;17.17;60.19
52923;BME280;38796;42.702;23.306;2022-11-20T02:32:29;94493.94;;;17.12;59.84
52923;BME280;38796;42.702;23.306;2022-11-20T02:34:30;94469.91;;;17.27;59.67
52923;BME280;38796;42.702;23.306;2022-11-20T02:36:29;94429.03;;;17.35;59.82
52923;BME280;38796;42.702;23.306;2022-11-20T02:38:29;94459.34;;;17.40;59.56
52923;BME280;38796;42.702;23.306;2022-11-20T02:40:29;94471.59;;;17.35;59.75
52923;BME280;38796;42.702;23.306;2022-11-20T02:42:27;94483.19;;;17.27;59.88
52923;BME280;38796;42.702;23.306;2022-11-20T02:44:26;94485.34;;;17.10;60.44
52923;BME280;38796;42.702;23.306;2022-11-20T02:46:24;94483.66;;;17.02;61.28
52923;BME280;38796;42.702;23.306;2022-11-20T02:48:22;94499.88;;;16.86;62.18
52923;BME280;38796;42.702;23.306;2022-11-20T02:50:21;94503.19;;;16.88;61.53
52923;BME280;38796;42.702;23.306;2022-11-20T02:52:19;94487.41;;;16.87;61.88
52923;BME280;38796;42.702;23.306;2022-11-20T02:54:17;94487.16;;;16.81;62.05
52923;BME280;38796;42.702;23.306;2022-11-20T02:56:17;94488.38;;;16.79;62.66
52923;BME280;38796;42.702;23.306;2022-11-20T02:58:15;94505.56;;;16.83;63.33
52923;BME280;38796;42.702;23.306;2022-11-20T03:00:14;94507.28;;;16.91;62.74
52923;BME280;38796;42.702;23.306;2022-11-20T03:02:12;94516.03;;;16.85;63.41
52923;BME280;38796;42.702;23.306;2022-11-20T03:04:10;94505.50;;;16.76;64.56
52923;BME280;38796;42.702;23.306;2022-11-20T03:06:09;94519.44;;;16.78;64.36
52923;BME280;38796;42.702;23.306;2022-11-20T03:08:07;94518.03;;;16.83;63.62
52923;BME280;38796;42.702;23.306;2022-11-20T03:10:06;94516.47;;;16.88;64.00
52923;BME280;38796;42.702;23.306;2022-11-20T03:12:06;94533.63;;;16.86;63.96
52923;BME280;38796;42.702;23.306;2022-11-20T03:14:05;94541.91;;;16.76;64.76
52923;BME280;38796;42.702;23.306;2022-11-20T03:16:08;94539.06;;;16.77;65.32
52923;BME280;38796;42.702;23.306;2022-11-20T03:18:07;94514.00;;;16.87;63.91
52923;BME280;38796;42.702;23.306;2022-11-20T03:20:06;94518.69;;;16.85;64.06
52923;BME280;38796;42.702;23.306;2022-11-20T03:22:05;94530.91;;;16.79;65.14
52923;BME280;38796;42.702;23.306;2022-11-20T03:24:04;94536.22;;;16.79;65.24
52923;BME280;38796;42.702;23.306;2022-11-20T03:26:10;94520.16;;;16.72;65.57
52923;BME280;38796;42.702;23.306;2022-11-20T03:28:10;94540.44;;;16.73;65.44
52923;BME280;38796;42.702;23.306;2022-11-20T03:30:09;94533.03;;;16.90;64.85
52923;BME280;38796;42.702;23.306;2022-11-20T03:32:07;94539.97;;;16.85;64.63
52923;BME280;38796;42.702;23.306;2022-11-20T03:34:06;94549.72;;;16.77;64.69
52923;BME280;38796;42.702;23.306;2022-11-20T03:36:07;94547.94;;;16.85;64.13
52923;BME280;38796;42.702;23.306;2022-11-20T03:38:05;94548.31;;;16.81;63.97
52923;BME280;38796;42.702;23.306;2022-11-20T03:40:05;94533.38;;;16.80;64.61
52923;BME280;38796;42.702;23.306;2022-11-20T03:42:04;94550.91;;;16.75;64.58
52923;BME280;38796;42.702;23.306;2022-11-20T03:44:24;94561.34;;;16.76;64.11
52923;BME280;38796;42.702;23.306;2022-11-20T03:46:22;94572.50;;;16.72;64.31
52923;BME280;38796;42.702;23.306;2022-11-20T03:48:20;94565.41;;;16.57;65.02
52923;BME280;38796;42.702;23.306;2022-11-20T03:50:19;94555.75;;;16.71;64.57
52923;BME280;38796;42.702;23.306;2022-11-20T03:52:17;94565.34;;;16.72;64.07
52923;BME280;38796;42.702;23.306;2022-11-20T03:54:15;94545.84;;;16.65;64.31
52923;BME280;38796;42.702;23.306;2022-11-20T03:56:15;94556.03;;;16.62;64.60
52923;BME280;38796;42.702;23.306;2022-11-20T03:58:14;94549.47;;;16.57;64.66
52923;BME280;38796;42.702;23.306;2022-11-20T04:00:15;94557.56;;;16.49;65.27
52923;BME280;38796;42.702;23.306;2022-11-20T04:02:13;94554.25;;;16.47;65.54
52923;BME280;38796;42.702;23.306;2022-11-20T04:04:11;94558.38;;;16.50;65.38
52923;BME280;38796;42.702;23.306;2022-11-20T04:06:11;94558.59;;;16.48;64.74
52923;BME280;38796;42.702;23.306;2022-11-20T04:08:10;94563.84;;;16.63;63.85
52923;BME280;38796;42.702;23.306;2022-11-20T04:10:08;94579.78;;;16.63;63.90
52923;BME280;38796;42.702;23.306;2022-11-20T04:12:06;94574.28;;;16.65;63.90
52923;BME280;38796;42.702;23.306;2022-11-20T04:14:06;94564.47;;;16.65;64.94
52923;BME280;38796;42.702;23.306;2022-11-20T04:16:07;94541.19;;;16.67;64.84
52923;BME280;38796;42.702;23.306;2022-11-20T04:18:06;94533.38;;;16.66;64.55
52923;BME280;38796;42.702;23.306;2022-11-20T04:20:05;94525.47;;;16.72;64.38
52923;BME280;38796;42.702;23.306;2022-11-20T04:22:04;94530.03;;;16.57;65.40
52923;BME280;38796;42.702;23.306;2022-11-20T04:24:02;94543.81;;;16.46;65.29
52923;BME280;38796;42.702;23.306;2022-11-20T04:26:01;94544.88;;;16.51;64.30
52923;BME280;38796;42.702;23.306;2022-11-20T04:28:00;94540.53;;;16.44;64.69
52923;BME280;38796;42.702;23.306;2022-11-20T04:29:58;94545.28;;;16.48;65.28
52923;BME280;38796;42.702;23.306;2022-11-20T04:31:58;94549.31;;;16.44;65.52
52923;BME280;38796;42.702;23.306;2022-11-20T04:33:59;94563.53;;;16.37;65.64
52923;BME280;38796;42.702;23.306;2022-11-20T04:36:00;94558.31;;;16.43;65.73
52923;BME280;38796;42.702;23.306;2022-11-20T04:37:59;94564.50;;;16.50;64.08
52923;BME280;38796;42.702;23.306;2022-11-20T04:39:57;94556.09;;;16.47;63.85
52923;BME280;38796;42.702;23.306;2022-11-20T04:41:56;94549.13;;;16.46;64.16
52923;BME280;38796;42.702;23.306;2022-11-20T04:44:08;94547.16;;;16.33;64.84
52923;BME280;38796;42.702;23.306;2022-11-20T04:46:06;94541.78;;;16.26;65.39
52923;BME280;38796;42.702;23.306;2022-11-20T04:48:06;94541.88;;;16.18;65.67
52923;BME280;38796;42.702;23.306;2022-11-20T04:50:05;94549.31;;;16.08;65.90
52923;BME280;38796;42.702;23.306;2022-11-20T04:52:03;94547.88;;;16.05;66.45
52923;BME280;38796;42.702;23.306;2022-11-20T04:54:01;94535.81;;;16.24;64.94
52923;BME280;38796;42.702;23.306;2022-11-20T04:56:00;94544.59;;;16.25;65.81
52923;BME280;38796;42.702;23.306;2022-11-20T04:57:58;94540.59;;;16.14;65.98
52923;BME280;38796;42.702;23.306;2022-11-20T04:59:57;94536.84;;;16.23;65.16
52923;BME280;38796;42.702;23.306;2022-11-20T05:01:55;94519.53;;;16.49;63.82
52923;BME280;38796;42.702;23.306;2022-11-20T05:03:55;94521.38;;;16.70;62.85
52923;BME280;38796;42.702;23.306;2022-11-20T05:05:53;94506.06;;;16.72;63.05
52923;BME280;38796;42.702;23.306;2022-11-20T05:07:51;94521.75;;;16.67;63.49
52923;BME280;38796;42.702;23.306;2022-11-20T05:09:49;94517.63;;;16.64;63.49
52923;BME280;38796;42.702;23.306;2022-11-20T05:11:48;94508.84;;;16.64;63.46
52923;BME280;38796;42.702;23.306;2022-11-20T05:13:47;94506.19;;;16.64;63.47
52923;BME280;38796;42.702;23.306;2022-11-20T05:15:46;94503.25;;;16.58;63.60
52923;BME280;38796;42.702;23.306;2022-11-20T05:17:47;94508.34;;;16.53;63.74
52923;BME280;38796;42.702;23.306;2022-11-20T05:19:46;94508.13;;;16.55;63.53
52923;BME280;38796;42.702;23.306;2022-11-20T05:21:48;94510.50;;;16.65;63.20
52923;BME280;38796;42.702;23.306;2022-11-20T05:23:47;94518.53;;;16.71;62.75
52923;BME280;38796;42.702;23.306;2022-11-20T05:25:46;94521.38;;;16.70;62.90
52923;BME280;38796;42.702;23.306;2022-11-20T05:27:44;94517.16;;;16.75;62.61
52923;BME280;38796;42.702;23.306;2022-11-20T05:29:42;94506.72;;;16.74;62.86
52923;BME280;38796;42.702;23.306;2022-11-20T05:31:40;94508.28;;;16.68;62.88
52923;BME280;38796;42.702;23.306;2022-11-20T05:33:39;94512.78;;;16.68;62.73
52923;BME280;38796;42.702;23.306;2022-11-20T05:35:39;94524.97;;;16.62;62.98
52923;BME280;38796;42.702;23.306;2022-11-20T05:37:37;94519.53;;;16.49;63.79
52923;BME280;38796;42.702;23.306;2022-11-20T05:39:36;94510.31;;;16.45;63.45
52923;BME280;38796;42.702;23.306;2022-11-20T05:41:34;94505.59;;;16.47;63.71
52923;BME280;38796;42.702;23.306;2022-11-20T05:43:33;94523.19;;;16.48;63.89
52923;BME280;38796;42.702;23.306;2022-11-20T05:45:31;94528.94;;;16.51;64.00
52923;BME280;38796;42.702;23.306;2022-11-20T05:47:32;94518.97;;;16.53;64.60
52923;BME280;38796;42.702;23.306;2022-11-20T05:49:30;94519.09;;;16.45;65.71
52923;BME280;38796;42.702;23.306;2022-11-20T05:51:30;94518.75;;;16.33;67.23
52923;BME280;38796;42.702;23.306;2022-11-20T05:53:29;94514.56;;;16.24;68.03
52923;BME280;38796;42.702;23.306;2022-11-20T05:55:27;94526.06;;;16.10;69.21
52923;BME280;38796;42.702;23.306;2022-11-20T05:57:25;94530.09;;;16.06;70.34
52923;BME280;38796;42.702;23.306;2022-11-20T05:59:24;94520.22;;;16.00;70.80
52923;BME280;38796;42.702;23.306;2022-11-20T06:01:23;94518.72;;;15.97;70.87
52923;BME280;38796;42.702;23.306;2022-11-20T06:03:22;94520.13;;;15.93;70.92
52923;BME280;38796;42.702;23.306;2022-11-20T06:05:20;94529.09;;;15.92;71.12
52923;BME280;38796;42.702;23.306;2022-11-20T06:07:20;94536.41;;;15.90;71.05
52923;BME280;38796;42.702;23.306;2022-11-20T06:09:18;94547.13;;;15.97;70.92
52923;BME280;38796;42.702;23.306;2022-11-20T06:11:17;94546.13;;;15.98;70.87
52923;BME280;38796;42.702;23.306;2022-11-20T06:13:18;94539.00;;;15.98;70.80
52923;BME280;38796;42.702;23.306;2022-11-20T06:15:17;94532.91;;;16.04;70.33
52923;BME280;38796;42.702;23.306;2022-11-20T06:17:15;94533.38;;;16.08;70.01
52923;BME280;38796;42.702;23.306;2022-11-20T06:19:14;94517.44;;;16.08;69.84
52923;BME280;38796;42.702;23.306;2022-11-20T06:21:14;94509.38;;;16.16;69.34
52923;BME280;38796;42.702;23.306;2022-11-20T06:23:14;94525.31;;;16.16;69.42
52923;BME280;38796;42.702;23.306;2022-11-20T06:25:12;94535.38;;;16.21;68.91
52923;BME280;38796;42.702;23.306;2022-11-20T06:27:10;94519.69;;;16.26;68.71
52923;BME280;38796;42.702;23.306;2022-11-20T06:29:24;94519.31;;;16.29;68.36
52923;BME280;38796;42.702;23.306;2022-11-20T06:31:30;94529.94;;;16.29;68.49
52923;BME280;38796;42.702;23.306;2022-11-20T06:33:38;94543.72;;;16.18;69.65
52923;BME280;38796;42.702;23.306;2022-11-20T06:35:38;94540.47;;;16.22;69.69
52923;BME280;38796;42.702;23.306;2022-11-20T06:37:40;94532.34;;;16.24;69.51
52923;BME280;38796;42.702;23.306;2022-11-20T06:39:42;94532.72;;;16.21;69.64
52923;BME280;38796;42.702;23.306;2022-11-20T06:41:41;94553.69;;;16.30;69.05
52923;BME280;38796;42.702;23.306;2022-11-20T06:43:40;94560.25;;;16.34;68.57
52923;BME280;38796;42.702;23.306;2022-11-20T06:45:38;94564.44;;;16.44;67.70
52923;BME280;38796;42.702;23.306;2022-11-20T06:47:39;94544.78;;;16.60;67.87
52923;BME280;38796;42.702;23.306;2022-11-20T06:49:43;94562.19;;;16.62;67.47
52923;BME280;38796;42.702;23.306;2022-11-20T06:51:41;94556.88;;;16.62;67.12
52923;BME280;38796;42.702;23.306;2022-11-20T06:53:39;94558.91;;;16.60;67.12
52923;BME280;38796;42.702;23.306;2022-11-20T06:55:42;94559.72;;;16.61;66.78
52923;BME280;38796;42.702;23.306;2022-11-20T06:57:40;94565.84;;;16.61;67.17
52923;BME280;38796;42.702;23.306;2022-11-20T06:59:38;94561.88;;;16.72;66.68
52923;BME280;38796;42.702;23.306;2022-11-20T07:01:36;94553.72;;;16.73;66.49
52923;BME280;38796;42.702;23.306;2022-11-20T07:03:35;94550.16;;;16.81;66.35
52923;BME280;38796;42.702;23.306;2022-11-20T07:05:33;94546.69;;;16.80;65.84
52923;BME280;38796;42.702;23.306;2022-11-20T07:07:32;94561.78;;;16.80;65.80
52923;BME280;38796;42.702;23.306;2022-11-20T07:09:30;94584.75;;;16.66;66.80
52923;BME280;38796;42.702;23.306;2022-11-20T07:11:30;94582.09;;;16.66;67.15
52923;BME280;38796;42.702;23.306;2022-11-20T07:13:29;94582.25;;;16.65;67.24
52923;BME280;38796;42.702;23.306;2022-11-20T07:15:27;94570.72;;;16.57;67.52
52923;BME280;38796;42.702;23.306;2022-11-20T07:17:26;94585.19;;;16.55;67.71
52923;BME280;38796;42.702;23.306;2022-11-20T07:19:24;94586.97;;;16.48;67.50
52923;BME280;38796;42.702;23.306;2022-11-20T07:21:22;94591.78;;;16.38;68.07
52923;BME280;38796;42.702;23.306;2022-11-20T07:23:21;94577.75;;;16.29;68.23
52923;BME280;38796;42.702;23.306;2022-11-20T07:25:19;94567.13;;;16.29;68.21
52923;BME280;38796;42.702;23.306;2022-11-20T07:27:18;94567.50;;;16.26;68.72
52923;BME280;38796;42.702;23.306;2022-11-20T07:29:17;94577.31;;;16.25;68.61
52923;BME280;38796;42.702;23.306;2022-11-20T07:31:18;94595.72;;;16.27;68.20
52923;BME280;38796;42.702;23.306;2022-11-20T07:33:17;94588.22;;;16.30;68.33
52923;BME280;38796;42.702;23.306;2022-11-20T07:35:15;94594.06;;;16.26;68.50
52923;BME280;38796;42.702;23.306;2022-11-20T07:37:13;94599.00;;;16.29;68.26
52923;BME280;38796;42.702;23.306;2022-11-20T07:39:11;94597.56;;;16.26;68.54
52923;BME280;38796;42.702;23.306;2022-11-20T07:41:10;94593.91;;;16.27;68.72
52923;BME280;38796;42.702;23.306;2022-11-20T07:43:09;94595.34;;;16.30;67.61
52923;BME280;38796;42.702;23.306;2022-11-20T07:45:08;94592.75;;;16.37;67.01
52923;BME280;38796;42.702;23.306;2022-11-20T07:47:07;94588.25;;;16.37;66.78
52923;BME280;38796;42.702;23.306;2022-11-20T07:49:05;94578.41;;;16.31;66.67
52923;BME280;38796;42.702;23.306;2022-11-20T07:51:03;94575.56;;;16.32;67.25
52923;BME280;38796;42.702;23.306;2022-11-20T07:53:03;94578.31;;;16.24;67.67
52923;BME280;38796;42.702;23.306;2022-11-20T07:55:01;94580.72;;;16.19;68.06
52923;BME280;38796;42.702;23.306;2022-11-20T07:57:00;94581.53;;;16.20;67.73
52923;BME280;38796;42.702;23.306;2022-11-20T07:58:59;94588.75;;;16.26;67.33
52923;BME280;38796;42.702;23.306;2022-11-20T08:00:58;94590.66;;;16.32;66.78
52923;BME280;38796;42.702;23.306;2022-11-20T08:02:56;94585.16;;;16.33;66.83
52923;BME280;38796;42.702;23.306;2022-11-20T08:04:54;94588.38;;;16.29;67.09
52923;BME280;38796;42.702;23.306;2022-11-20T08:06:52;94599.22;;;16.27;67.12
52923;BME280;38796;42.702;23.306;2022-11-20T08:08:51;94596.25;;;16.22;67.41
52923;BME280;38796;42.702;23.306;2022-11-20T08:10:49;94595.66;;;16.20;67.51
52923;BME280;38796;42.702;23.306;2022-11-20T08:12:48;94585.47;;;16.24;67.36
52923;BME280;38796;42.702;23.306;2022-11-20T08:15:11;94577.03;;;16.35;66.53
52923;BME280;38796;42.702;23.306;2022-11-20T08:17:15;94584.78;;;16.37;66.72
52923;BME280;38796;42.702;23.306;2022-11-20T08:19:31;94576.00;;;16.36;66.75
52923;BME280;38796;42.702;23.306;2022-11-20T08:21:43;94578.66;;;16.36;66.90
52923;BME280;38796;42.702;23.306;2022-11-20T08:23:42;94571.34;;;16.38;66.52
52923;BME280;38796;42.702;23.306;2022-11-20T08:25:43;94584.72;;;16.30;67.06
52923;BME280;38796;42.702;23.306;2022-11-20T08:27:41;94595.44;;;16.22;67.81
52923;BME280;38796;42.702;23.306;2022-11-20T08:29:40;94607.00;;;16.14;68.63
52923;BME280;38796;42.702;23.306;2022-11-20T08:31:42;94605.34;;;16.13;69.11
52923;BME280;38796;42.702;23.306;2022-11-20T08:33:40;94600.22;;;16.26;68.74
52923;BME280;38796;42.702;23.306;2022-11-20T08:35:39;94603.69;;;16.27;69.04
52923;BME280;38796;42.702;23.306;2022-11-20T08:37:46;94612.03;;;16.24;69.41
52923;BME280;38796;42.702;23.306;2022-11-20T08:39:44;94602.59;;;16.21;69.40
52923;BME280;38796;42.702;23.306;2022-11-20T08:41:48;94614.03;;;16.22;69.48
52923;BME280;38796;42.702;23.306;2022-11-20T08:43:49;94608.81;;;16.28;69.02
52923;BME280;38796;42.702;23.306;2022-11-20T08:45:47;94630.34;;;16.19;69.49
52923;BME280;38796;42.702;23.306;2022-11-20T08:47:47;94639.53;;;16.16;69.47
52923;BME280;38796;42.702;23.306;2022-11-20T08:49:45;94635.59;;;16.12;70.55
52923;BME280;38796;42.702;23.306;2022-11-20T08:51:50;94630.88;;;16.29;71.95
52923;BME280;38796;42.702;23.306;2022-11-20T08:53:52;94628.53;;;16.19;72.95
52923;BME280;38796;42.702;23.306;2022-11-20T08:55:50;94631.63;;;16.08;75.36
52923;BME280;38796;42.702;23.306;2022-11-20T08:57:48;94621.38;;;16.20;76.30
52923;BME280;38796;42.702;23.306;2022-11-20T08:59:47;94621.19;;;16.21;77.38
52923;BME280;38796;42.702;23.306;2022-11-20T09:02:02;94616.91;;;16.56;77.37
52923;BME280;38796;42.702;23.306;2022-11-20T09:04:02;94630.38;;;17.06;75.56
52923;BME280;38796;42.702;23.306;2022-11-20T09:06:03;94627.72;;;17.27;75.06
52923;BME280;38796;42.702;23.306;2022-11-20T09:08:02;94640.75;;;17.01;76.13
52923;BME280;38796;42.702;23.306;2022-11-20T09:10:01;94644.72;;;16.90;76.01
52923;BME280;38796;42.702;23.306;2022-11-20T09:12:20;94632.41;;;16.53;79.05
52923;BME280;38796;42.702;23.306;2022-11-20T09:14:18;94643.09;;;16.23;80.95
52923;BME280;38796;42.702;23.306;2022-11-20T09:16:17;94637.03;;;16.15;82.29
52923;BME280;38796;42.702;23.306;2022-11-20T09:18:15;94646.00;;;15.99;82.71
52923;BME280;38796;42.702;23.306;2022-11-20T09:20:15;94666.03;;;15.86;83.73
52923;BME280;38796;42.702;23.306;2022-11-20T09:22:14;94651.38;;;15.76;85.60
52923;BME280;38796;42.702;23.306;2022-11-20T09:24:12;94652.69;;;15.57;87.96
52923;BME280;38796;42.702;23.306;2022-11-20T09:26:15;94649.19;;;15.42;89.54
52923;BME280;38796;42.702;23.306;2022-11-20T09:28:44;94635.25;;;15.02;90.41
52923;BME280;38796;42.702;23.306;2022-11-20T09:30:53;94638.66;;;14.87;89.11
52923;BME280;38796;42.702;23.306;2022-11-20T09:32:52;94633.94;;;14.75;88.83
52923;BME280;38796;42.702;23.306;2022-11-20T09:34:50;94633.09;;;14.51;89.30
52923;BME280;38796;42.702;23.306;2022-11-20T09:36:50;94617.72;;;14.38;89.91
52923;BME280;38796;42.702;23.306;2022-11-20T09:38:48;94614.03;;;14.48;91.92
52923;BME280;38796;42.702;23.306;2022-11-20T09:40:51;94617.53;;;14.79;91.65
52923;BME280;38796;42.702;23.306;2022-11-20T09:43:03;94599.22;;;15.83;84.37
52923;BME280;38796;42.702;23.306;2022-11-20T09:45:16;94594.06;;;17.20;76.65
52923;BME280;38796;42.702;23.306;2022-11-20T09:47:26;94604.16;;;18.50;76.17
52923;BME280;38796;42.702;23.306;2022-11-20T09:49:36;94594.13;;;19.73;69.08
52923;BME280;38796;42.702;23.306;2022-11-20T09:51:46;94586.53;;;19.70;67.58
52923;BME280;38796;42.702;23.306;2022-11-20T09:54:02;94586.53;;;19.77;68.15
52923;BME280;38796;42.702;23.306;2022-11-20T09:56:03;94592.03;;;19.42;69.84
52923;BME280;38796;42.702;23.306;2022-11-20T09:58:05;94587.56;;;19.62;68.31
52923;BME280;38796;42.702;23.306;2022-11-20T10:00:06;94589.56;;;19.93;69.30
52923;BME280;38796;42.702;23.306;2022-11-20T10:02:16;94580.53;;;21.29;64.31
52923;BME280;38796;42.702;23.306;2022-11-20T10:04:17;94582.13;;;22.49;59.95
52923;BME280;38796;42.702;23.306;2022-11-20T10:06:18;94575.13;;;24.04;55.04
52923;BME280;38796;42.702;23.306;2022-11-20T10:08:21;94562.44;;;24.51;53.52
52923;BME280;38796;42.702;23.306;2022-11-20T10:10:35;94569.84;;;24.44;53.59
52923;BME280;38796;42.702;23.306;2022-11-20T10:12:52;94568.66;;;24.52;52.41
52923;BME280;38796;42.702;23.306;2022-11-20T10:15:06;94551.13;;;24.26;52.12
52923;BME280;38796;42.702;23.306;2022-11-20T10:17:16;94543.53;;;22.98;55.12
52923;BME280;38796;42.702;23.306;2022-11-20T10:19:41;94544.34;;;21.95;58.49
52923;BME280;38796;42.702;23.306;2022-11-20T10:21:55;94547.81;;;20.64;62.07
52923;BME280;38796;42.702;23.306;2022-11-20T10:24:24;94551.78;;;18.97;67.14
52923;BME280;38796;42.702;23.306;2022-11-20T10:26:32;94546.63;;;17.80;72.69
52923;BME280;38796;42.702;23.306;2022-11-20T10:28:46;94552.97;;;17.22;76.24
52923;BME280;38796;42.702;23.306;2022-11-20T10:30:59;94574.19;;;16.94;78.98
52923;BME280;38796;42.702;23.306;2022-11-20T10:33:03;94583.38;;;16.92;78.70